Airfield :
LOGIN :

Register | Disclaimer

   EN    FR    IT 

 










Legend :    VFR   Marginal VFR   IFR   Intensive IFR   Very Intensive IFR
Visi :
Ceiling :
>= 8 km
>= 3000ft
5 to 8 km
1000 to 3000 ft
1500m to 5 km
500 to 1000 ft
800 to 1500m
200 to 500 ft
< 800m
< 200 ft
Symbols :   Thunderstorms  Fog  Heavy snow  Heavy precipitations  Wind > 20 kt
SIGMETs :     Misc.  Thunderstorms  Icing  Turbulence  Mountain Waves  Volcanic Ashes






- Airport Elevation : 1411 ft
- IATA code : GVA


LSGG - Genève Cointrin

CURRENT METAR :
  • 251950Z VRB01KT 9999 FEW015 SCT080 12/11 Q1015 NOSIG

EXPIRED METARs :
  • 251920Z 24003KT 9999 FEW015 SCT080 11/10 Q1015 NOSIG
  • 251850Z VRB01KT 9999 FEW010 SCT060 12/11 Q1015 NOSIG
  • 251820Z VRB01KT 9999 FEW010 SCT060 12/11 Q1014 NOSIG
  • 251750Z 28002KT 9999 FEW010 BKN070 13/11 Q1014 NOSIG
  • 251720Z VRB01KT 9999 FEW010 BKN060 13/12 Q1014 TEMPO SHRA

TAF TAF LSGG
Valid from the 25 at 18:00 until the 27 at 00:00 UTC


251725Z 2518/2624 VRB02KT 9999 FEW010 BKN050 TX17/2615Z TN08/2605Z
TEMPO 2518/2521 SHRA
PROB30
TEMPO 2603/2606 1500 BCFG
BECMG 2610/2613 22010KT
BECMG 2618/2620 SHRA
ATIS : +41 22 417 40 81



MET'MAP, your aeronautical weather chart ! - Copyright ORBIFLY December 2007 - Disclaimer

ORBIFLY MET'MAP TEAM :

Programming & Development : Alexandra Zaïnal
Original concept : Baudouin d'Aumeries
Technical & hardware support : Manuel Goepfert
Assistance : Marc-Olivier Méhu




SOURCES & CREDITS :

   NOAA